createdAt,value
2022-08-03T00:00:41.282Z,1.95
2022-08-03T00:03:09.364Z,1.50
2022-08-03T00:05:37.747Z,1.80
2022-08-03T00:08:05.926Z,1.80
2022-08-03T00:10:34.901Z,1.42
2022-08-03T00:13:02.775Z,1.60
2022-08-03T00:15:30.840Z,1.70
2022-08-03T00:17:58.778Z,1.70
2022-08-03T00:20:26.657Z,1.50
2022-08-03T00:22:54.617Z,1.60
2022-08-03T00:25:22.520Z,2.00
2022-08-03T00:27:50.501Z,1.55
2022-08-03T00:30:18.891Z,1.75
2022-08-03T00:32:47.800Z,2.20
2022-08-03T00:35:36.416Z,1.60
2022-08-03T00:38:05.677Z,1.65
2022-08-03T00:40:34.481Z,2.30
2022-08-03T00:43:05.389Z,2.10
2022-08-03T00:45:36.657Z,1.90
2022-08-03T00:48:06.549Z,1.63
2022-08-03T00:50:54.923Z,1.80
2022-08-03T00:53:23.184Z,1.63
2022-08-03T00:55:51.535Z,1.65
2022-08-03T00:58:19.630Z,2.03
2022-08-03T01:00:47.575Z,1.95
2022-08-03T01:03:15.572Z,1.50
2022-08-03T01:05:54.026Z,1.67
2022-08-03T01:08:47.703Z,1.70
2022-08-03T01:11:30.474Z,1.85
2022-08-03T01:14:19.323Z,2.15
2022-08-03T01:16:57.556Z,1.55
2022-08-03T01:19:39.908Z,1.80
2022-08-03T01:22:23.708Z,2.20
2022-08-03T01:25:06.037Z,2.17
2022-08-03T01:27:58.209Z,1.90
2022-08-03T01:30:32.497Z,1.95
2022-08-03T01:33:07.591Z,2.00
2022-08-03T01:36:00.438Z,2.20
2022-08-03T01:38:35.097Z,1.80
2022-08-03T01:41:10.789Z,1.90
2022-08-03T01:44:26.898Z,2.55
2022-08-03T01:46:31.458Z,1.77
2022-08-03T01:49:00.733Z,2.13
2022-08-03T01:51:57.772Z,1.85
2022-08-03T01:54:32.034Z,1.90
2022-08-03T01:57:04.906Z,1.83
2022-08-03T01:59:35.819Z,1.58
2022-08-03T02:02:15.649Z,1.95
2022-08-03T02:04:57.697Z,3.17
2022-08-03T02:07:30.875Z,1.90
2022-08-03T02:10:00.844Z,2.30
2022-08-03T02:12:32.464Z,2.00
2022-08-03T02:15:01.780Z,2.03
2022-08-03T02:17:39.362Z,2.20
2022-08-03T02:20:15.229Z,2.55
2022-08-03T02:22:44.641Z,2.00
2022-08-03T02:25:15.557Z,2.50
2022-08-03T02:27:58.433Z,2.28
2022-08-03T02:30:33.388Z,2.13
2022-08-03T02:33:02.132Z,2.20
2022-08-03T02:35:30.744Z,2.40
2022-08-03T02:38:05.538Z,2.50
2022-08-03T02:40:34.022Z,2.00
2022-08-03T02:43:10.622Z,2.40
2022-08-03T02:45:45.869Z,2.20
2022-08-03T02:48:18.022Z,2.42
2022-08-03T02:50:50.089Z,2.10
2022-08-03T02:53:19.825Z,2.10
2022-08-03T02:55:49.001Z,2.25
2022-08-03T02:58:22.883Z,2.05
2022-08-03T03:00:52.369Z,2.30
2022-08-03T03:03:22.166Z,2.45
2022-08-03T03:05:53.496Z,2.40
2022-08-03T03:08:28.781Z,2.20
2022-08-03T03:10:58.741Z,2.22
2022-08-03T03:13:28.740Z,2.25
2022-08-03T03:16:00.575Z,2.58
2022-08-03T03:18:31.040Z,2.35
2022-08-03T03:21:01.118Z,2.95
2022-08-03T03:23:30.629Z,2.90
2022-08-03T03:25:59.059Z,2.22
2022-08-03T03:28:31.072Z,2.35
2022-08-03T03:31:00.732Z,2.13
2022-08-03T03:33:28.842Z,2.60
2022-08-03T03:35:58.624Z,2.60
2022-08-03T03:38:27.062Z,2.90
2022-08-03T03:40:55.350Z,5.28
2022-08-03T03:43:24.829Z,2.30
2022-08-03T03:45:55.796Z,2.95
2022-08-03T03:48:26.209Z,2.70
2022-08-03T03:50:57.542Z,2.72
2022-08-03T03:53:25.939Z,3.00
2022-08-03T03:56:01.954Z,2.70
2022-08-03T03:58:32.723Z,2.75
2022-08-03T04:01:01.723Z,2.78
2022-08-03T04:03:29.923Z,3.00
2022-08-03T04:06:18.229Z,3.00
2022-08-03T04:09:04.708Z,3.00
2022-08-03T04:11:47.575Z,3.05
2022-08-03T04:14:38.088Z,3.08
2022-08-03T04:17:09.363Z,2.95
2022-08-03T04:19:39.180Z,3.15
2022-08-03T04:22:14.071Z,3.17
2022-08-03T04:24:55.682Z,3.13
2022-08-03T04:27:28.867Z,2.90
2022-08-03T04:30:00.688Z,2.90
2022-08-03T04:32:29.950Z,3.20
2022-08-03T04:34:58.247Z,3.13
2022-08-03T04:37:29.229Z,3.13
2022-08-03T04:39:58.535Z,3.47
2022-08-03T04:42:27.737Z,2.50
2022-08-03T04:45:01.026Z,3.38
2022-08-03T04:47:32.567Z,3.08
2022-08-03T04:50:04.936Z,2.55
2022-08-03T04:52:36.268Z,2.42
2022-08-03T04:55:04.583Z,2.53
2022-08-03T04:57:32.464Z,2.53
2022-08-03T05:00:02.945Z,2.33
2022-08-03T05:02:32.096Z,3.03
2022-08-03T05:05:00.604Z,2.80
2022-08-03T05:07:35.438Z,3.05
2022-08-03T05:10:15.759Z,2.83
2022-08-03T05:12:46.305Z,3.17
2022-08-03T05:15:15.086Z,3.13
2022-08-03T05:17:43.322Z,3.10
2022-08-03T05:20:12.173Z,2.70
2022-08-03T05:22:40.058Z,3.30
2022-08-03T05:25:08.382Z,3.25
2022-08-03T05:27:36.489Z,3.45
2022-08-03T05:30:31.265Z,3.40
2022-08-03T05:32:53.835Z,3.28
2022-08-03T05:36:00.784Z,3.15
2022-08-03T05:38:09.763Z,2.95
2022-08-03T05:40:38.588Z,3.13
2022-08-03T05:43:14.914Z,3.03
2022-08-03T05:45:43.444Z,3.40
2022-08-03T05:48:11.412Z,2.92
2022-08-03T05:50:42.767Z,3.30
2022-08-03T05:53:10.886Z,3.30
2022-08-03T05:55:38.905Z,2.75
2022-08-03T05:58:06.882Z,3.20
2022-08-03T06:00:34.836Z,2.53
2022-08-03T06:03:02.914Z,3.10
2022-08-03T06:05:31.550Z,3.35
2022-08-03T06:07:59.644Z,3.30
2022-08-03T06:10:37.822Z,2.85
2022-08-03T06:13:06.188Z,2.60
2022-08-03T06:15:38.206Z,2.70
2022-08-03T06:18:07.835Z,3.10
2022-08-03T06:20:35.712Z,3.13
2022-08-03T06:23:03.694Z,3.42
2022-08-03T06:25:32.225Z,3.38
2022-08-03T06:28:00.547Z,2.78
2022-08-03T06:30:28.401Z,2.83
2022-08-03T06:32:56.429Z,3.00
2022-08-03T06:35:24.599Z,2.55
2022-08-03T06:37:52.617Z,3.05
2022-08-03T06:40:31.530Z,2.67
2022-08-03T06:43:01.046Z,2.95
2022-08-03T06:45:31.766Z,2.55
2022-08-03T06:48:05.901Z,2.72
2022-08-03T06:50:35.129Z,2.60
2022-08-03T06:53:04.388Z,3.13
2022-08-03T06:55:33.121Z,3.00
2022-08-03T06:58:03.226Z,3.10
2022-08-03T07:00:31.617Z,2.65
2022-08-03T07:02:59.512Z,2.60
2022-08-03T07:05:27.524Z,2.70
2022-08-03T07:07:56.965Z,3.03
2022-08-03T07:10:25.301Z,2.95
2022-08-03T07:12:56.348Z,3.28
2022-08-03T07:15:54.643Z,2.60
2022-08-03T07:18:13.336Z,2.88
2022-08-03T07:20:41.380Z,2.85
2022-08-03T07:23:09.888Z,2.45
2022-08-03T07:25:39.832Z,2.60
2022-08-03T07:28:08.304Z,2.72
2022-08-03T07:30:36.168Z,3.08
2022-08-03T07:33:04.170Z,2.70
2022-08-03T07:35:32.046Z,2.60
2022-08-03T07:37:59.854Z,2.67
2022-08-03T07:40:31.718Z,2.70
2022-08-03T07:43:00.516Z,2.65
2022-08-03T07:45:29.180Z,2.45
2022-08-03T07:47:57.193Z,2.63
2022-08-03T07:50:25.389Z,2.58
2022-08-03T07:52:54.009Z,2.67
2022-08-03T07:55:24.091Z,2.47
2022-08-03T07:58:06.721Z,2.30
2022-08-03T08:00:35.197Z,2.80
2022-08-03T08:03:03.958Z,2.95
2022-08-03T08:05:32.252Z,2.60
2022-08-03T08:08:01.060Z,2.97
2022-08-03T08:10:29.200Z,2.67
2022-08-03T08:12:57.539Z,2.63
2022-08-03T08:15:25.442Z,2.55
2022-08-03T08:17:56.590Z,2.63
2022-08-03T08:20:32.927Z,3.13
2022-08-03T08:23:37.687Z,2.30
2022-08-03T08:25:57.543Z,3.00
2022-08-03T08:28:30.199Z,2.17
2022-08-03T08:31:00.206Z,2.20
2022-08-03T08:33:42.130Z,2.22
2022-08-03T08:36:16.069Z,2.35
2022-08-03T08:38:45.068Z,2.50
2022-08-03T08:41:14.583Z,2.63
2022-08-03T08:43:43.214Z,2.00
2022-08-03T08:46:23.629Z,2.25
2022-08-03T08:48:53.526Z,2.80
2022-08-03T08:51:22.518Z,2.80
2022-08-03T08:53:52.992Z,2.38
2022-08-03T08:56:22.744Z,2.53
2022-08-03T08:58:54.634Z,2.83
2022-08-03T09:01:22.764Z,2.78
2022-08-03T09:03:51.310Z,2.55
2022-08-03T09:06:19.276Z,2.58
2022-08-03T09:08:47.175Z,3.08
2022-08-03T09:11:15.034Z,2.50
2022-08-03T09:13:42.906Z,3.00
2022-08-03T09:16:15.922Z,2.45
2022-08-03T09:18:45.889Z,2.93
2022-08-03T09:21:37.775Z,3.03
2022-08-03T09:24:13.139Z,2.70
2022-08-03T09:26:52.226Z,3.25
2022-08-03T09:29:22.719Z,3.20
2022-08-03T09:31:59.503Z,3.63
2022-08-03T09:34:30.525Z,3.42
2022-08-03T09:36:58.511Z,3.90
2022-08-03T09:39:40.417Z,3.83
2022-08-03T09:42:15.678Z,3.40
2022-08-03T09:44:47.081Z,3.28
2022-08-03T09:47:17.656Z,3.60
2022-08-03T09:49:58.780Z,3.60
2022-08-03T09:52:49.469Z,3.00
2022-08-03T09:56:05.201Z,3.47
2022-08-03T09:58:12.676Z,3.13
2022-08-03T10:01:07.868Z,3.10
2022-08-03T10:04:03.999Z,2.85
2022-08-03T10:06:32.964Z,3.20
2022-08-03T10:09:17.309Z,2.78
2022-08-03T10:11:47.027Z,2.65
2022-08-03T10:14:20.900Z,3.58
2022-08-03T10:19:17.850Z,3.10
2022-08-03T10:21:53.644Z,3.22
2022-08-03T10:24:27.304Z,3.17
2022-08-03T10:27:03.641Z,3.78
2022-08-03T10:29:37.552Z,2.83
2022-08-03T10:32:29.214Z,2.63
2022-08-03T10:35:20.044Z,2.70
2022-08-03T10:38:01.028Z,2.47
2022-08-03T10:40:47.922Z,3.03
2022-08-03T10:43:24.609Z,3.58
2022-08-03T10:45:53.055Z,2.90
2022-08-03T10:48:22.422Z,2.75
2022-08-03T10:50:50.774Z,2.72
2022-08-03T10:53:40.447Z,3.00
2022-08-03T10:56:53.289Z,2.65
2022-08-03T10:59:46.974Z,2.97
2022-08-03T11:02:16.516Z,3.40
2022-08-03T11:04:47.444Z,2.97
2022-08-03T11:07:19.505Z,2.97
2022-08-03T11:09:50.262Z,2.63
2022-08-03T11:12:31.058Z,3.67
2022-08-03T11:15:09.178Z,2.65
2022-08-03T11:17:46.338Z,2.55
2022-08-03T11:20:45.757Z,2.63
2022-08-03T11:23:14.893Z,2.17
2022-08-03T11:26:12.811Z,2.33
2022-08-03T11:28:42.268Z,2.65
2022-08-03T11:31:49.673Z,2.28
2022-08-03T11:34:15.214Z,3.00
2022-08-03T11:37:22.503Z,2.40
2022-08-03T11:39:53.265Z,2.30
2022-08-03T11:42:29.034Z,2.15
2022-08-03T11:44:58.816Z,2.38
2022-08-03T11:47:28.748Z,2.45
2022-08-03T11:49:59.189Z,2.22
2022-08-03T11:52:34.228Z,2.30
2022-08-03T11:55:03.019Z,2.42
2022-08-03T11:58:58.395Z,2.50
2022-08-03T12:00:25.841Z,2.30
2022-08-03T12:02:58.492Z,2.58
2022-08-03T12:05:35.283Z,2.63
2022-08-03T12:08:06.624Z,2.10
2022-08-03T12:10:35.089Z,2.60
2022-08-03T12:14:44.982Z,2.22
2022-08-03T12:15:59.393Z,1.90
2022-08-03T12:18:27.613Z,2.10
2022-08-03T12:21:07.296Z,2.67
2022-08-03T12:23:37.796Z,2.45
2022-08-03T12:26:10.105Z,2.10
2022-08-03T12:28:38.664Z,2.28
2022-08-03T12:31:09.213Z,2.08
2022-08-03T12:34:19.114Z,1.95
2022-08-03T12:36:56.173Z,2.05
2022-08-03T12:39:26.353Z,2.33
2022-08-03T12:41:55.747Z,2.47
2022-08-03T12:44:36.828Z,2.58
2022-08-03T12:47:06.915Z,2.28
2022-08-03T12:49:48.653Z,2.05
2022-08-03T12:52:17.970Z,2.53
2022-08-03T12:54:58.576Z,2.60
2022-08-03T12:57:40.536Z,2.35
2022-08-03T13:00:21.514Z,2.60
2022-08-03T13:05:58.173Z,2.85
2022-08-03T13:08:27.294Z,2.40
2022-08-03T13:10:55.752Z,2.13
2022-08-03T13:13:40.201Z,2.30
2022-08-03T13:16:08.185Z,2.08
2022-08-03T13:18:36.206Z,2.50
2022-08-03T13:21:06.100Z,2.83
2022-08-03T13:23:34.037Z,2.42
2022-08-03T13:26:01.876Z,1.90
2022-08-03T13:28:29.718Z,1.85
2022-08-03T13:30:57.865Z,2.28
2022-08-03T13:33:28.373Z,1.80
2022-08-03T13:35:56.676Z,1.50
2022-08-03T13:38:26.919Z,1.95
2022-08-03T13:40:55.335Z,1.77
2022-08-03T13:43:25.086Z,1.67
2022-08-03T13:45:57.758Z,1.73
2022-08-03T13:48:37.009Z,1.70
2022-08-03T13:51:22.232Z,2.03
2022-08-03T13:53:52.376Z,1.88
2022-08-03T13:56:20.211Z,1.70
2022-08-03T13:58:48.292Z,1.88
2022-08-03T14:01:16.406Z,1.75
2022-08-03T14:03:44.639Z,1.60
2022-08-03T14:06:13.748Z,1.63
2022-08-03T14:08:41.688Z,1.77
2022-08-03T14:11:10.069Z,1.90
2022-08-03T14:13:38.475Z,2.05
2022-08-03T14:16:09.861Z,2.13
2022-08-03T14:18:41.422Z,1.80
2022-08-03T14:21:10.086Z,1.60
2022-08-03T14:23:39.223Z,1.60
2022-08-03T14:26:12.008Z,2.00
2022-08-03T14:28:40.293Z,1.70
2022-08-03T14:32:09.914Z,1.77
2022-08-03T14:33:56.500Z,1.60
2022-08-03T14:36:25.391Z,1.70
2022-08-03T14:38:56.107Z,2.22
2022-08-03T14:41:26.136Z,1.60
2022-08-03T14:44:01.151Z,1.70
2022-08-03T14:46:31.105Z,1.80
2022-08-03T14:50:31.596Z,2.10
2022-08-03T14:51:53.500Z,1.90
2022-08-03T14:54:22.660Z,2.17
2022-08-03T14:56:50.626Z,2.28
2022-08-03T14:59:18.690Z,1.80
2022-08-03T15:02:06.262Z,1.80
2022-08-03T15:04:36.866Z,1.70
2022-08-03T15:07:04.806Z,1.90
2022-08-03T15:09:33.012Z,2.22
2022-08-03T15:12:01.025Z,1.95
2022-08-03T15:14:33.222Z,2.00
2022-08-03T15:17:02.848Z,2.05
2022-08-03T15:20:02.117Z,1.90
2022-08-03T15:22:20.813Z,2.30
2022-08-03T15:24:53.793Z,2.08
2022-08-03T15:27:22.312Z,2.10
2022-08-03T15:30:08.133Z,2.60
2022-08-03T15:32:38.125Z,1.80
2022-08-03T15:35:06.972Z,1.77
2022-08-03T15:37:34.848Z,2.00
2022-08-03T15:40:03.621Z,2.20
2022-08-03T15:42:33.137Z,1.90
2022-08-03T15:45:00.977Z,1.95
2022-08-03T15:47:28.905Z,2.10
2022-08-03T15:49:56.856Z,1.90
2022-08-03T15:52:25.008Z,2.00
2022-08-03T15:54:52.877Z,1.90
2022-08-03T15:57:22.547Z,1.88
2022-08-03T15:59:50.944Z,1.77
2022-08-03T16:02:18.965Z,1.73
2022-08-03T16:04:46.933Z,1.85
2022-08-03T16:07:16.023Z,1.83
2022-08-03T16:09:44.401Z,1.95
2022-08-03T16:12:16.205Z,2.08
2022-08-03T16:14:52.981Z,1.75
2022-08-03T16:17:22.688Z,2.10
2022-08-03T16:19:54.762Z,1.90
2022-08-03T16:22:24.495Z,2.15
2022-08-03T16:24:54.004Z,2.03
2022-08-03T16:27:56.517Z,2.20
2022-08-03T16:30:11.751Z,1.92
2022-08-03T16:32:39.808Z,1.92
2022-08-03T16:35:08.799Z,1.80
2022-08-03T16:37:39.067Z,2.10
2022-08-03T16:40:17.270Z,1.83
2022-08-03T16:42:47.733Z,1.60
2022-08-03T16:45:15.669Z,2.13
2022-08-03T16:47:43.816Z,1.90
2022-08-03T16:50:19.122Z,1.95
2022-08-03T16:52:50.717Z,1.80
2022-08-03T16:55:48.921Z,1.75
2022-08-03T16:58:07.322Z,1.88
2022-08-03T17:00:41.880Z,1.80
2022-08-03T17:03:19.160Z,1.80
2022-08-03T17:05:50.115Z,1.63
2022-08-03T17:08:26.237Z,1.95
2022-08-03T17:10:56.900Z,2.35
2022-08-03T17:13:38.794Z,2.00
2022-08-03T17:16:10.616Z,1.85
2022-08-03T17:18:47.564Z,2.30
2022-08-03T17:21:17.721Z,1.80
2022-08-03T17:24:01.663Z,1.98
2022-08-03T17:26:31.206Z,1.60
2022-08-03T17:29:11.203Z,1.80
2022-08-03T17:31:48.700Z,1.80
2022-08-03T17:34:27.634Z,1.95
2022-08-03T17:37:04.525Z,1.83
2022-08-03T17:39:57.595Z,1.70
2022-08-03T17:42:30.678Z,1.70
2022-08-03T17:45:03.857Z,1.90
2022-08-03T17:50:27.953Z,1.70
2022-08-03T17:53:07.114Z,1.88
2022-08-03T17:55:57.534Z,2.10
2022-08-03T17:58:59.474Z,1.80
2022-08-03T18:02:12.289Z,1.90
2022-08-03T18:05:16.499Z,1.85
2022-08-03T18:07:59.526Z,1.80
2022-08-03T18:10:36.385Z,2.22
2022-08-03T18:13:30.072Z,2.17
2022-08-03T18:16:05.675Z,1.90
2022-08-03T18:18:44.832Z,1.90
2022-08-03T18:21:19.684Z,1.88
2022-08-03T18:24:00.332Z,1.85
2022-08-03T18:26:31.422Z,2.00
2022-08-03T18:29:05.583Z,1.90
2022-08-03T18:32:03.265Z,1.70
2022-08-03T18:34:33.349Z,1.90
2022-08-03T18:39:58.181Z,1.95
2022-08-03T18:42:32.313Z,1.90
2022-08-03T18:45:56.318Z,1.90
2022-08-03T18:48:20.672Z,2.00
2022-08-03T18:51:09.720Z,2.00
2022-08-03T18:54:04.125Z,2.17
2022-08-03T18:56:55.764Z,1.88
2022-08-03T18:59:32.189Z,1.80
2022-08-03T19:02:30.186Z,1.90
2022-08-03T19:05:08.053Z,1.90
2022-08-03T19:07:41.393Z,1.83
2022-08-03T19:10:11.221Z,1.95
2022-08-03T19:12:53.077Z,2.10
2022-08-03T19:15:36.734Z,1.95
2022-08-03T19:18:11.229Z,1.80
2022-08-03T19:20:40.090Z,2.10
2022-08-03T19:23:11.420Z,1.80
2022-08-03T19:25:43.472Z,1.95
2022-08-03T19:28:11.688Z,2.20
2022-08-03T19:30:53.261Z,2.83
2022-08-03T19:33:25.706Z,2.30
2022-08-03T19:35:58.348Z,2.00
2022-08-03T19:38:34.541Z,1.88
2022-08-03T19:43:53.907Z,2.10
2022-08-03T19:46:31.114Z,2.08
2022-08-03T19:51:58.893Z,2.08
2022-08-03T19:54:29.322Z,2.35
2022-08-03T19:57:01.786Z,2.00
2022-08-03T19:59:50.290Z,1.90
2022-08-03T20:02:26.615Z,1.90
2022-08-03T20:04:59.975Z,1.90
2022-08-03T20:07:30.965Z,2.10
2022-08-03T20:10:01.456Z,2.13
2022-08-03T20:12:38.755Z,2.33
2022-08-03T20:15:09.280Z,2.55
2022-08-03T20:17:57.125Z,2.15
2022-08-03T20:20:38.197Z,2.30
2022-08-03T20:23:14.052Z,2.47
2022-08-03T20:25:57.142Z,2.35
2022-08-03T20:28:35.903Z,2.38
2022-08-03T20:31:32.444Z,1.95
2022-08-03T20:34:09.392Z,2.30
2022-08-03T20:36:41.439Z,2.35
2022-08-03T20:39:10.618Z,2.50
2022-08-03T20:41:43.567Z,2.30
2022-08-03T20:44:17.079Z,2.55
2022-08-03T20:47:00.225Z,2.78
2022-08-03T20:49:29.334Z,2.43
2022-08-03T20:52:18.461Z,3.15
2022-08-03T20:54:56.447Z,2.77
2022-08-03T20:57:28.801Z,2.88
2022-08-03T21:00:09.136Z,2.50
2022-08-03T21:02:40.777Z,2.70
2022-08-03T21:05:10.836Z,2.70
2022-08-03T21:08:06.934Z,2.42
2022-08-03T21:10:40.716Z,2.92
2022-08-03T21:12:55.172Z,1.98
2022-08-03T21:13:05.448Z,1.92
2022-08-03T21:16:11.962Z,2.80
2022-08-03T21:18:44.875Z,2.70
2022-08-03T21:21:17.234Z,2.70
2022-08-03T21:23:50.229Z,2.50
2022-08-03T21:26:20.929Z,2.42
2022-08-03T21:28:51.542Z,2.63
2022-08-03T21:31:25.484Z,2.63
2022-08-03T21:33:56.652Z,3.10
2022-08-03T21:36:28.207Z,3.15
2022-08-03T21:38:57.809Z,3.15
2022-08-03T21:41:28.978Z,3.35
2022-08-03T21:43:58.006Z,2.70
2022-08-03T21:46:30.872Z,3.42
2022-08-03T21:50:05.893Z,3.10
2022-08-03T21:51:58.696Z,2.75
2022-08-03T21:54:47.040Z,3.25
2022-08-03T21:57:38.475Z,3.63
2022-08-03T22:00:09.348Z,2.83
2022-08-03T22:02:44.850Z,2.75
2022-08-03T22:05:29.195Z,3.10
2022-08-03T22:08:13.552Z,3.17
2022-08-03T22:10:45.015Z,2.80
2022-08-03T22:13:15.225Z,2.88
2022-08-03T22:15:43.419Z,3.25
2022-08-03T22:18:11.417Z,3.13
2022-08-03T22:20:39.464Z,3.10
2022-08-03T22:23:08.307Z,3.40
2022-08-03T22:25:39.402Z,2.90
2022-08-03T22:28:15.331Z,3.10
2022-08-03T22:30:43.656Z,3.20
2022-08-03T22:33:14.544Z,2.95
2022-08-03T22:35:49.479Z,3.10
2022-08-03T22:38:18.725Z,3.00
2022-08-03T22:40:51.156Z,2.97
2022-08-03T22:43:24.243Z,2.80
2022-08-03T22:46:07.618Z,2.80
2022-08-03T22:51:10.045Z,3.08
2022-08-03T22:53:41.014Z,2.85
2022-08-03T22:56:09.293Z,3.50
2022-08-03T22:58:38.907Z,3.25
2022-08-03T23:01:08.986Z,3.15
2022-08-03T23:03:59.632Z,3.40
2022-08-03T23:06:37.392Z,3.63
2022-08-03T23:09:11.229Z,2.80
2022-08-03T23:11:45.188Z,3.05
2022-08-03T23:14:18.114Z,2.88
2022-08-03T23:16:47.507Z,3.00
2022-08-03T23:19:25.787Z,2.80
2022-08-03T23:22:02.890Z,3.28
2022-08-03T23:24:39.489Z,3.00
2022-08-03T23:27:09.567Z,3.05
2022-08-03T23:29:44.373Z,2.80
2022-08-03T23:32:14.575Z,2.90
2022-08-03T23:35:03.681Z,2.83
2022-08-03T23:37:33.384Z,3.20
2022-08-03T23:40:30.863Z,3.40
2022-08-03T23:43:00.183Z,3.15
2022-08-03T23:45:29.135Z,3.13
2022-08-03T23:47:57.313Z,3.00
2022-08-03T23:50:27.780Z,3.13
2022-08-03T23:53:18.643Z,2.88
2022-08-03T23:56:19.344Z,2.53
2022-08-03T23:58:47.083Z,2.72
